createdAt,value
2018-09-30T00:01:46.254Z,78.40
2018-09-30T00:04:15.999Z,79.40
2018-09-30T00:06:45.404Z,78.00
2018-09-30T00:09:15.176Z,77.30
2018-09-30T00:11:47.079Z,75.70
2018-09-30T00:14:16.387Z,69.80
2018-09-30T00:16:48.367Z,67.30
2018-09-30T00:19:17.864Z,70.10
2018-09-30T00:21:49.706Z,73.30
2018-09-30T00:24:24.368Z,74.50
2018-09-30T00:27:00.445Z,72.80
2018-09-30T00:29:30.506Z,74.40
2018-09-30T00:32:01.488Z,74.80
2018-09-30T00:34:32.732Z,71.40
2018-09-30T00:37:02.123Z,66.50
2018-09-30T00:39:31.751Z,65.00
2018-09-30T00:42:03.708Z,69.10
2018-09-30T00:44:33.231Z,69.60
2018-09-30T00:47:02.644Z,71.00
2018-09-30T00:49:32.248Z,70.60
2018-09-30T00:52:02.771Z,72.80
2018-09-30T00:54:32.143Z,74.10
2018-09-30T00:57:02.443Z,70.70
2018-09-30T00:59:33.550Z,69.30
2018-09-30T01:02:03.417Z,67.40
2018-09-30T01:04:32.931Z,66.60
2018-09-30T01:07:03.657Z,69.20
2018-09-30T01:09:33.416Z,71.50
2018-09-30T01:12:03.747Z,67.10
2018-09-30T01:14:33.815Z,68.50
2018-09-30T01:17:03.552Z,68.30
2018-09-30T01:19:32.788Z,66.50
2018-09-30T01:22:02.685Z,69.30
2018-09-30T01:24:34.113Z,69.50
2018-09-30T01:27:04.144Z,69.30
2018-09-30T01:29:35.275Z,71.50
2018-09-30T01:32:06.331Z,73.30
2018-09-30T01:34:35.797Z,70.20
2018-09-30T01:37:08.412Z,70.40
2018-09-30T01:39:37.879Z,72.50
2018-09-30T01:42:07.568Z,73.60
2018-09-30T01:44:36.933Z,73.40
2018-09-30T01:47:06.374Z,71.90
2018-09-30T01:49:35.756Z,65.20
2018-09-30T01:52:16.330Z,67.80
2018-09-30T01:54:46.568Z,69.40
2018-09-30T01:57:16.089Z,69.10
2018-09-30T01:59:46.401Z,67.20
2018-09-30T02:02:15.799Z,68.40
2018-09-30T02:04:45.544Z,72.50
2018-09-30T02:07:19.915Z,73.30
2018-09-30T02:09:49.155Z,70.00
2018-09-30T02:12:18.786Z,67.50
2018-09-30T02:14:48.023Z,67.90
2018-09-30T02:17:19.273Z,71.60
2018-09-30T02:19:48.477Z,72.10
2018-09-30T02:22:17.883Z,72.80
2018-09-30T02:24:47.121Z,73.70
2018-09-30T02:27:16.703Z,73.70
2018-09-30T02:29:46.113Z,70.20
2018-09-30T02:32:17.120Z,67.30
2018-09-30T02:34:46.382Z,65.30
2018-09-30T02:37:15.602Z,67.20
2018-09-30T02:39:44.964Z,71.60
2018-09-30T02:42:15.275Z,73.10
2018-09-30T02:44:44.519Z,72.30
2018-09-30T02:47:15.574Z,72.20
2018-09-30T02:49:44.813Z,69.10
2018-09-30T02:52:15.331Z,71.70
2018-09-30T02:54:44.545Z,72.80
2018-09-30T02:57:14.427Z,71.50
2018-09-30T02:59:44.587Z,73.20
2018-09-30T03:02:15.195Z,74.50
2018-09-30T03:04:45.781Z,77.50
2018-09-30T03:07:20.614Z,75.00
2018-09-30T03:09:49.786Z,73.50
2018-09-30T03:12:20.618Z,68.70
2018-09-30T03:14:50.133Z,67.60
2018-09-30T03:17:21.034Z,69.90
2018-09-30T03:19:50.261Z,72.10
2018-09-30T03:22:20.100Z,72.00
2018-09-30T03:24:49.677Z,74.60
2018-09-30T03:27:19.125Z,76.10
2018-09-30T03:29:48.361Z,75.70
2018-09-30T03:32:19.732Z,74.70
2018-09-30T03:34:48.974Z,75.60
2018-09-30T03:37:18.785Z,72.90
2018-09-30T03:39:48.280Z,73.30
2018-09-30T03:42:17.683Z,71.50
2018-09-30T03:44:47.206Z,69.30
2018-09-30T03:47:16.588Z,67.40
2018-09-30T03:49:45.778Z,64.90
2018-09-30T03:52:15.947Z,63.70
2018-09-30T03:54:45.422Z,64.60
2018-09-30T03:57:14.938Z,68.30
2018-09-30T03:59:44.412Z,71.40
2018-09-30T04:02:15.532Z,71.60
2018-09-30T04:04:44.961Z,69.50
2018-09-30T04:07:14.523Z,69.80
2018-09-30T04:09:44.989Z,69.20
2018-09-30T04:12:14.431Z,71.50
2018-09-30T04:14:44.885Z,70.60
2018-09-30T04:17:16.584Z,72.60
2018-09-30T04:19:46.394Z,74.60
2018-09-30T04:22:15.946Z,77.00
2018-09-30T04:24:45.375Z,77.90
2018-09-30T04:27:14.864Z,78.00
2018-09-30T04:29:44.280Z,75.50
2018-09-30T04:32:15.677Z,74.90
2018-09-30T04:34:45.067Z,74.80
2018-09-30T04:37:14.475Z,75.30
2018-09-30T04:39:43.929Z,74.00
2018-09-30T04:42:14.571Z,69.80
2018-09-30T04:44:43.931Z,72.00
2018-09-30T04:47:14.883Z,72.20
2018-09-30T04:49:44.069Z,71.80
2018-09-30T04:52:13.495Z,70.40
2018-09-30T04:54:43.058Z,65.00
2018-09-30T04:57:12.583Z,63.30
2018-09-30T04:59:42.128Z,67.20
2018-09-30T05:02:14.510Z,69.10
2018-09-30T05:04:43.783Z,70.10
2018-09-30T05:07:13.389Z,69.60
2018-09-30T05:09:43.546Z,71.30
2018-09-30T05:12:13.831Z,72.90
2018-09-30T05:14:43.097Z,71.90
2018-09-30T05:17:15.699Z,70.10
2018-09-30T05:19:45.277Z,69.90
2018-09-30T05:22:15.400Z,69.20
2018-09-30T05:24:45.779Z,68.30
2018-09-30T05:27:15.416Z,69.40
2018-09-30T05:29:46.404Z,70.00
2018-09-30T05:32:18.982Z,72.40
2018-09-30T05:34:50.277Z,71.50
2018-09-30T05:37:20.119Z,73.40
2018-09-30T05:39:49.580Z,72.90
2018-09-30T05:42:19.362Z,65.30
2018-09-30T05:44:48.840Z,65.30
2018-09-30T05:47:20.277Z,62.60
2018-09-30T05:49:53.649Z,64.10
2018-09-30T05:52:23.396Z,64.50
2018-09-30T05:54:52.824Z,66.80
2018-09-30T05:57:22.700Z,68.30
2018-09-30T05:59:52.426Z,66.10
2018-09-30T06:02:23.852Z,67.10
2018-09-30T06:04:53.058Z,66.20
2018-09-30T06:07:22.562Z,65.90
2018-09-30T06:09:53.137Z,65.90
2018-09-30T06:12:23.486Z,65.70
2018-09-30T06:14:52.754Z,64.40
2018-09-30T06:17:24.324Z,62.30
2018-09-30T06:19:53.936Z,62.50
2018-09-30T06:22:25.171Z,62.30
2018-09-30T06:24:54.616Z,61.40
2018-09-30T06:27:23.921Z,61.20
2018-09-30T06:29:53.111Z,60.60
2018-09-30T06:32:23.565Z,63.00
2018-09-30T06:34:52.951Z,61.00
2018-09-30T06:37:22.329Z,62.60
2018-09-30T06:39:51.935Z,63.50
2018-09-30T06:42:24.993Z,62.60
2018-09-30T06:44:54.226Z,62.00
2018-09-30T06:47:24.196Z,61.80
2018-09-30T06:49:54.682Z,60.00
2018-09-30T06:52:24.477Z,59.70
2018-09-30T06:54:53.791Z,58.60
2018-09-30T06:57:23.234Z,59.10
2018-09-30T06:59:53.974Z,59.70
2018-09-30T07:02:24.792Z,60.40
2018-09-30T07:04:54.923Z,61.00
2018-09-30T07:07:24.968Z,60.60
2018-09-30T07:09:54.871Z,60.90
2018-09-30T07:12:25.233Z,61.00
2018-09-30T07:14:55.046Z,61.00
2018-09-30T07:17:24.719Z,62.10
2018-09-30T07:19:53.936Z,61.80
2018-09-30T07:22:23.581Z,61.40
2018-09-30T07:24:52.797Z,61.00
2018-09-30T07:27:22.110Z,61.70
2018-09-30T07:29:51.324Z,62.30
2018-09-30T07:32:22.683Z,63.50
2018-09-30T07:34:51.909Z,63.10
2018-09-30T07:37:21.061Z,61.50
2018-09-30T07:39:50.859Z,60.20
2018-09-30T07:42:22.296Z,59.00
2018-09-30T07:44:51.501Z,58.00
2018-09-30T07:47:22.884Z,55.50
2018-09-30T07:49:52.481Z,52.60
2018-09-30T07:52:21.970Z,51.90
2018-09-30T07:54:51.151Z,53.00
2018-09-30T07:57:21.472Z,50.80
2018-09-30T07:59:51.035Z,49.70
2018-09-30T08:02:23.400Z,49.00
2018-09-30T08:04:53.318Z,47.20
2018-09-30T08:07:22.674Z,46.30
2018-09-30T08:09:52.863Z,45.60
2018-09-30T08:12:22.418Z,45.30
2018-09-30T08:14:51.870Z,45.20
2018-09-30T08:17:23.824Z,45.50
2018-09-30T08:19:53.164Z,45.50
2018-09-30T08:22:22.589Z,43.10
2018-09-30T08:24:51.771Z,43.80
2018-09-30T08:27:21.807Z,43.90
2018-09-30T08:29:51.041Z,43.40
2018-09-30T08:32:23.601Z,41.60
2018-09-30T08:34:53.042Z,40.90
2018-09-30T08:37:27.717Z,39.70
2018-09-30T08:39:57.051Z,40.50
2018-09-30T08:42:26.314Z,39.40
2018-09-30T08:44:56.028Z,39.30
2018-09-30T08:47:26.721Z,38.40
2018-09-30T08:49:56.265Z,38.40
2018-09-30T08:52:29.784Z,37.90
2018-09-30T08:55:01.478Z,38.10
2018-09-30T08:57:30.992Z,36.40
2018-09-30T09:00:01.399Z,35.60
2018-09-30T09:02:31.650Z,36.50
2018-09-30T09:05:01.356Z,35.20
2018-09-30T09:07:30.777Z,36.40
2018-09-30T09:10:00.685Z,36.50
2018-09-30T09:12:29.966Z,36.50
2018-09-30T09:14:59.439Z,35.40
2018-09-30T09:17:29.017Z,36.40
2018-09-30T09:19:58.718Z,33.80
2018-09-30T09:22:28.111Z,34.20
2018-09-30T09:24:57.616Z,34.70
2018-09-30T09:27:26.827Z,34.40
2018-09-30T09:29:56.035Z,32.90
2018-09-30T09:32:27.948Z,32.60
2018-09-30T09:34:57.244Z,33.00
2018-09-30T09:37:26.672Z,32.20
2018-09-30T09:52:18.608Z,29.50
2018-09-30T09:54:48.036Z,29.50
2018-09-30T09:57:17.648Z,29.80
2018-09-30T09:59:47.314Z,29.10
2018-09-30T10:02:18.026Z,28.10
2018-09-30T10:04:47.404Z,28.20
2018-09-30T10:07:16.817Z,28.40
2018-09-30T10:09:47.010Z,28.40
2018-09-30T10:12:16.430Z,29.50
2018-09-30T10:14:46.908Z,29.20
2018-09-30T10:17:18.223Z,28.80
2018-09-30T10:19:47.426Z,28.80
2018-09-30T10:22:16.992Z,28.10
2018-09-30T10:24:46.230Z,27.20
2018-09-30T10:27:15.455Z,27.50
2018-09-30T10:29:44.654Z,26.80
2018-09-30T10:32:14.458Z,25.10
2018-09-30T10:34:43.807Z,25.70
2018-09-30T10:37:13.144Z,26.10
2018-09-30T10:39:42.811Z,26.80
2018-09-30T10:42:12.697Z,26.90
2018-09-30T10:44:41.954Z,26.50
2018-09-30T10:47:11.191Z,26.20
2018-09-30T10:49:40.714Z,25.80
2018-09-30T10:52:09.872Z,25.80
2018-09-30T10:54:43.938Z,25.60
2018-09-30T10:57:13.166Z,25.10
2018-09-30T10:59:42.498Z,25.40
2018-09-30T11:02:12.781Z,24.50
2018-09-30T11:04:41.959Z,25.80
2018-09-30T11:07:12.385Z,24.90
2018-09-30T11:09:41.700Z,24.20
2018-09-30T11:12:12.985Z,24.80
2018-09-30T11:14:42.600Z,24.90
2018-09-30T11:17:12.444Z,25.00
2018-09-30T11:19:42.238Z,22.80
2018-09-30T11:22:12.629Z,23.50
2018-09-30T11:24:41.849Z,23.90
2018-09-30T11:27:11.324Z,22.60
2018-09-30T11:29:40.643Z,23.30
2018-09-30T11:32:11.194Z,23.80
2018-09-30T11:34:40.481Z,22.40
2018-09-30T11:37:10.008Z,22.80
2018-09-30T11:39:39.315Z,22.00
2018-09-30T11:42:09.776Z,22.00
2018-09-30T11:44:39.030Z,20.50
2018-09-30T11:47:08.842Z,20.90
2018-09-30T11:49:39.008Z,21.60
2018-09-30T11:52:08.283Z,21.20
2018-09-30T11:54:37.497Z,20.30
2018-09-30T11:57:06.728Z,21.20
2018-09-30T11:59:36.220Z,21.00
2018-09-30T12:02:05.694Z,20.80
2018-09-30T12:04:35.109Z,20.90
2018-09-30T12:07:04.382Z,20.40
2018-09-30T12:09:33.601Z,19.50
2018-09-30T12:12:02.977Z,20.00
2018-09-30T12:14:32.185Z,20.30
2018-09-30T12:17:01.775Z,19.90
2018-09-30T12:19:31.181Z,20.50
2018-09-30T12:22:01.542Z,18.80
2018-09-30T12:24:30.872Z,18.40
2018-09-30T12:27:00.116Z,19.80
2018-09-30T12:29:30.271Z,18.50
2018-09-30T12:31:59.892Z,19.00
2018-09-30T12:34:30.999Z,19.20
2018-09-30T12:37:00.231Z,19.70
2018-09-30T12:39:30.562Z,18.50
2018-09-30T12:42:00.128Z,18.90
2018-09-30T12:44:29.741Z,19.00
2018-09-30T12:46:59.083Z,19.00
2018-09-30T12:49:29.205Z,18.30
2018-09-30T12:51:59.850Z,17.80
2018-09-30T12:54:29.305Z,17.20
2018-09-30T12:56:59.327Z,18.20
2018-09-30T12:59:28.911Z,17.50
2018-09-30T13:01:59.116Z,18.40
2018-09-30T13:04:29.436Z,17.60
2018-09-30T13:06:58.982Z,18.50
2018-09-30T13:09:28.948Z,17.10
2018-09-30T13:11:59.265Z,16.80
2018-09-30T13:14:29.262Z,17.30
2018-09-30T13:16:58.431Z,17.50
2018-09-30T13:19:27.849Z,16.80
2018-09-30T13:21:57.527Z,17.30
2018-09-30T13:24:26.748Z,16.50
2018-09-30T13:26:57.023Z,16.10
2018-09-30T13:29:26.244Z,15.90
2018-09-30T13:31:55.560Z,15.40
2018-09-30T13:34:24.889Z,15.00
2018-09-30T13:36:54.105Z,15.00
2018-09-30T13:39:23.284Z,13.70
2018-09-30T13:41:52.861Z,12.40
2018-09-30T13:44:22.243Z,12.40
2018-09-30T13:46:51.478Z,11.00
2018-09-30T13:49:20.956Z,9.30
2018-09-30T13:51:50.301Z,7.60
2018-09-30T13:54:19.482Z,6.90
2018-09-30T13:56:48.693Z,5.10
2018-09-30T13:59:18.630Z,4.00
2018-09-30T14:01:48.001Z,3.90
2018-09-30T14:04:17.538Z,9.80
2018-09-30T14:06:46.900Z,3.30
2018-09-30T14:09:16.078Z,3.40
2018-09-30T14:11:46.333Z,2.10
2018-09-30T14:14:17.359Z,2.60
2018-09-30T14:16:46.709Z,1.30
2018-09-30T14:19:15.931Z,1.70
2018-09-30T14:21:45.275Z,1.00
2018-09-30T14:24:14.825Z,1.00
2018-09-30T14:26:44.346Z,1.00
2018-09-30T14:29:13.605Z,1.00
2018-09-30T14:31:48.620Z,1.00
2018-09-30T14:34:18.941Z,1.00
2018-09-30T14:36:48.077Z,2.90
2018-09-30T14:39:17.343Z,3.80
2018-09-30T14:42:14.465Z,4.50
2018-09-30T14:44:58.698Z,5.90
2018-09-30T14:47:32.916Z,7.60
2018-09-30T14:50:02.688Z,8.80
2018-09-30T14:52:32.386Z,8.90
2018-09-30T14:55:02.108Z,9.10
2018-09-30T14:57:31.488Z,9.20
2018-09-30T15:00:01.141Z,9.70
2018-09-30T15:02:32.513Z,10.70
2018-09-30T15:05:03.965Z,11.10
2018-09-30T15:07:33.958Z,11.80
2018-09-30T15:10:03.466Z,12.60
2018-09-30T15:12:35.836Z,12.60
2018-09-30T15:15:09.107Z,14.30
2018-09-30T15:17:38.550Z,13.60
2018-09-30T15:20:10.891Z,14.10
2018-09-30T15:22:40.626Z,15.70
2018-09-30T15:25:10.031Z,15.10
2018-09-30T15:27:39.293Z,16.30
2018-09-30T15:30:08.535Z,16.60
2018-09-30T15:32:38.751Z,16.00
2018-09-30T15:35:08.601Z,16.90
2018-09-30T15:37:38.440Z,16.80
2018-09-30T15:40:07.844Z,18.70
2018-09-30T15:42:39.239Z,17.20
2018-09-30T15:45:11.902Z,18.40
2018-09-30T15:47:42.450Z,19.80
2018-09-30T15:50:13.106Z,20.10
2018-09-30T15:52:42.532Z,19.90
2018-09-30T15:55:13.006Z,19.60
2018-09-30T15:57:42.450Z,20.20
2018-09-30T16:00:13.229Z,21.00
2018-09-30T16:02:42.628Z,21.70
2018-09-30T16:05:12.281Z,21.90
2018-09-30T16:07:41.571Z,23.10
2018-09-30T16:10:11.282Z,24.90
2018-09-30T16:12:40.464Z,26.80
2018-09-30T16:15:10.382Z,28.50
2018-09-30T16:17:40.383Z,28.90
2018-09-30T16:20:10.645Z,28.50
2018-09-30T16:22:41.364Z,29.90
2018-09-30T16:25:11.957Z,31.00
2018-09-30T16:27:41.700Z,33.80
2018-09-30T16:30:12.053Z,35.10
2018-09-30T16:32:42.135Z,34.70
2018-09-30T16:35:27.182Z,35.10
2018-09-30T16:39:32.222Z,37.20
2018-09-30T16:42:01.632Z,38.80
2018-09-30T16:44:31.049Z,39.80
2018-09-30T16:47:00.264Z,40.90
2018-09-30T16:49:29.479Z,41.60
2018-09-30T16:52:23.029Z,43.80
2018-09-30T16:55:40.208Z,44.50
2018-09-30T16:58:42.867Z,45.10
2018-09-30T17:01:38.210Z,45.70
2018-09-30T17:04:16.237Z,44.90
2018-09-30T17:07:25.706Z,45.80
2018-09-30T17:10:47.002Z,47.00
2018-09-30T17:13:27.964Z,48.50
2018-09-30T17:15:57.747Z,49.00
2018-09-30T17:18:27.028Z,48.40
2018-09-30T17:20:57.368Z,49.30
2018-09-30T17:23:26.607Z,51.30
2018-09-30T17:25:55.984Z,50.70
2018-09-30T17:28:25.202Z,50.20
2018-09-30T17:30:54.654Z,51.10
2018-09-30T17:33:23.995Z,52.90
2018-09-30T17:35:53.213Z,52.80
2018-09-30T17:38:22.500Z,53.70
2018-09-30T17:40:51.738Z,54.60
2018-09-30T17:43:21.614Z,54.30
2018-09-30T17:45:52.505Z,52.70
2018-09-30T17:48:21.786Z,52.60
2018-09-30T17:50:52.324Z,54.20
2018-09-30T17:53:21.662Z,55.40
2018-09-30T17:55:50.990Z,56.50
2018-09-30T17:58:21.031Z,56.60
2018-09-30T18:00:54.054Z,56.60
2018-09-30T18:03:24.251Z,57.10
2018-09-30T18:05:54.061Z,59.50
2018-09-30T18:08:23.965Z,57.00
2018-09-30T18:10:54.105Z,57.00
2018-09-30T18:16:11.490Z,60.50
2018-09-30T18:18:45.841Z,61.50
2018-09-30T18:21:15.749Z,61.20
2018-09-30T18:23:45.111Z,63.70
2018-09-30T18:26:19.677Z,63.20
2018-09-30T18:28:54.038Z,61.50
2018-09-30T18:31:31.588Z,61.50
2018-09-30T18:34:06.590Z,62.50
2018-09-30T18:36:40.269Z,61.50
2018-09-30T18:39:21.098Z,62.40
2018-09-30T18:41:52.031Z,62.50
2018-09-30T18:44:22.555Z,62.40
2018-09-30T18:46:53.377Z,62.30
2018-09-30T18:53:03.600Z,63.30
2018-09-30T18:55:54.434Z,63.60
2018-09-30T18:58:48.917Z,63.00
2018-09-30T19:01:19.819Z,63.60
2018-09-30T19:03:51.914Z,65.90
2018-09-30T19:06:24.600Z,65.90
2018-09-30T19:08:57.236Z,63.40
2018-09-30T19:11:31.713Z,64.00
2018-09-30T19:14:05.817Z,63.30
2018-09-30T19:16:37.108Z,63.60
2018-09-30T19:19:10.707Z,65.60
2018-09-30T19:21:44.140Z,65.60
2018-09-30T19:24:14.055Z,65.50
2018-09-30T19:26:46.391Z,64.20
2018-09-30T19:29:20.695Z,67.50
2018-09-30T19:31:54.800Z,69.90
2018-09-30T19:34:32.081Z,70.20
2018-09-30T19:37:01.449Z,68.40
2018-09-30T19:39:35.935Z,69.20
2018-09-30T19:42:05.486Z,70.40
2018-09-30T19:44:38.230Z,70.10
2018-09-30T19:47:10.584Z,70.90
2018-09-30T19:49:43.046Z,70.00
2018-09-30T19:52:15.106Z,70.70
2018-09-30T19:54:50.094Z,67.60
2018-09-30T19:57:21.324Z,66.50
2018-09-30T19:59:52.194Z,70.20
2018-09-30T20:02:36.856Z,72.70
2018-09-30T20:05:11.705Z,71.90
2018-09-30T20:07:42.208Z,71.30
2018-09-30T20:10:13.511Z,70.30
2018-09-30T20:12:46.680Z,72.00
2018-09-30T20:15:18.743Z,74.60
2018-09-30T20:17:51.920Z,75.10
2018-09-30T20:20:36.896Z,73.90
2018-09-30T20:23:10.904Z,74.50
2018-09-30T20:25:41.852Z,72.30
2018-09-30T20:28:14.933Z,71.20
2018-09-30T20:30:57.696Z,74.20
2018-09-30T20:33:30.363Z,73.50
2018-09-30T20:36:06.680Z,75.10
2018-09-30T20:38:48.616Z,75.90
2018-09-30T20:41:33.191Z,76.40
2018-09-30T20:44:09.717Z,75.00
2018-09-30T20:46:42.670Z,76.30
2018-09-30T20:49:14.105Z,76.80
2018-09-30T20:51:46.090Z,75.20
2018-09-30T20:54:17.521Z,74.20
2018-09-30T20:56:52.757Z,73.70
2018-09-30T20:59:27.864Z,74.00
2018-09-30T21:02:00.187Z,74.10
2018-09-30T21:07:18.807Z,78.20
2018-09-30T21:09:55.937Z,77.10
2018-09-30T21:12:29.777Z,75.80
2018-09-30T21:15:04.773Z,77.90
2018-09-30T21:17:39.907Z,76.60
2018-09-30T21:20:19.177Z,75.40
2018-09-30T21:22:54.826Z,75.80
2018-09-30T21:25:29.794Z,75.50
2018-09-30T21:28:04.816Z,72.90
2018-09-30T21:30:36.602Z,76.00
2018-09-30T21:33:05.974Z,75.40
2018-09-30T21:35:36.086Z,78.70
2018-09-30T21:38:06.871Z,78.70
2018-09-30T21:40:36.909Z,80.50
2018-09-30T21:43:09.433Z,79.90
2018-09-30T21:45:41.100Z,79.40
2018-09-30T21:48:13.461Z,80.60
2018-09-30T21:50:51.337Z,81.20
2018-09-30T21:53:23.671Z,80.70
2018-09-30T21:55:55.609Z,78.00
2018-09-30T21:58:26.698Z,77.30
2018-09-30T22:01:03.861Z,74.40
2018-09-30T22:03:37.856Z,75.70
2018-09-30T22:06:13.447Z,73.80
2018-09-30T22:08:43.295Z,74.10
2018-09-30T22:11:21.111Z,71.60
2018-09-30T22:13:54.093Z,74.00
2018-09-30T22:16:30.938Z,73.90
2018-09-30T22:19:01.848Z,74.20
2018-09-30T22:21:36.455Z,75.70
2018-09-30T22:24:17.097Z,79.20
2018-09-30T22:26:57.678Z,78.60
2018-09-30T22:29:38.243Z,76.60
2018-09-30T22:32:16.452Z,77.80
2018-09-30T22:34:57.140Z,80.00
2018-09-30T22:37:31.950Z,81.50
2018-09-30T22:40:10.762Z,81.90
2018-09-30T22:42:43.983Z,82.10
2018-09-30T22:45:15.227Z,82.80
2018-09-30T22:47:50.568Z,79.20
2018-09-30T22:50:23.977Z,79.70
2018-09-30T22:52:57.963Z,79.80
2018-09-30T22:55:32.149Z,75.70
2018-09-30T22:58:04.816Z,75.10
2018-09-30T23:00:35.608Z,75.10
2018-09-30T23:03:10.142Z,75.50
2018-09-30T23:05:41.756Z,77.10
2018-09-30T23:08:14.711Z,77.10
2018-09-30T23:10:47.320Z,77.00
2018-09-30T23:13:18.404Z,75.90
2018-09-30T23:15:48.802Z,78.30
2018-09-30T23:18:22.485Z,77.40
2018-09-30T23:20:54.622Z,79.00
2018-09-30T23:23:26.013Z,78.70
2018-09-30T23:26:03.562Z,79.30
2018-09-30T23:28:34.212Z,79.60
2018-09-30T23:31:08.561Z,77.70
2018-09-30T23:33:41.813Z,75.90
2018-09-30T23:36:16.633Z,72.70
2018-09-30T23:38:47.251Z,70.90
2018-09-30T23:41:21.101Z,70.40
2018-09-30T23:43:56.005Z,71.90
2018-09-30T23:46:26.552Z,71.90
2018-09-30T23:49:01.216Z,70.90
2018-09-30T23:51:31.825Z,69.60
2018-09-30T23:54:01.010Z,69.70
2018-09-30T23:56:30.482Z,70.40
2018-09-30T23:58:59.849Z,69.80
